| time (UTC) | temp C | wind direction | speed KPH | gust KPH | rain 1hr cm | rain 24hr cm | rain mn cm | humidity % | barometer mb |
| 20260906214404 | 30 | 251 | 3.2 | 9.7 | 0.00 | 0.00 | 0.00 | 31 | 1020.8 |
| 20260906213903 | 30 | 309 | 3.2 | 11.3 | 0.00 | 0.00 | 0.00 | 31 | 1020.9 |
| 20260906213404 | 30 | 259 | 3.2 | 11.3 | 0.00 | 0.00 | 0.00 | 34 | 1020.9 |
| 20260906212904 | 30 | 271 | 3.2 | 11.3 | 0.00 | 0.00 | 0.00 | 32 | 1021.0 |
| 20260906212402 | 30 | 141 | 4.8 | 9.7 | 0.00 | 0.00 | 0.00 | 32 | 1021.0 |
| 20260906211901 | 30 | 269 | 1.6 | 9.7 | 0.00 | 0.00 | 0.00 | 33 | 1021.0 |
| 20260906211401 | 30 | 247 | 4.8 | 11.3 | 0.00 | 0.00 | 0.00 | 33 | 1021.1 |
| 20260906210901 | 29 | 258 | 3.2 | 9.7 | 0.00 | 0.00 | 0.00 | 32 | 1021.0 |
| 20260906210401 | 29 | 238 | 6.4 | 16.1 | 0.00 | 0.00 | 0.00 | 33 | 1021.1 |
| 20260906205901 | 30 | 263 | 3.2 | 16.1 | 0.00 | 0.00 | 0.00 | 34 | 1021.2 |
| 20260906205401 | 30 | 54 | 1.6 | 8.0 | 0.00 | 0.00 | 0.00 | 35 | 1021.2 |
| 20260906204901 | 29 | 241 | 3.2 | 11.3 | 0.00 | 0.00 | 0.00 | 35 | 1021.5 |
| 20260906204401 | 29 | 256 | 4.8 | 16.1 | 0.00 | 0.00 | 0.00 | 35 | 1021.4 |
| 20260906203901 | 29 | 259 | 8.0 | 14.5 | 0.00 | 0.00 | 0.00 | 35 | 1021.4 |
| 20260906203401 | 29 | 7 | 6.4 | 12.9 | 0.00 | 0.00 | 0.00 | 34 | 1021.5 |
| 20260906202900 | 29 | 277 | 4.8 | 14.5 | 0.00 | 0.00 | 0.00 | 35 | 1021.7 |
| 20260906202401 | 29 | 75 | 3.2 | 9.7 | 0.00 | 0.00 | 0.00 | 37 | 1021.6 |
| 20260906201901 | 29 | 220 | 8.0 | 16.1 | 0.00 | 0.00 | 0.00 | 34 | 1021.7 |
| 20260906195901 | 30 | 19 | 4.8 | 11.3 | 0.00 | 0.00 | 0.00 | 34 | 1021.8 |
| 20260906194901 | 30 | 83 | 3.2 | 9.7 | 0.00 | 0.00 | 0.00 | 35 | 1021.9 |
| 20260906193901 | 29 | 240 | 6.4 | 16.1 | 0.00 | 0.00 | 0.00 | 34 | 1022.0 |
| 20260906192901 | 29 | 261 | 3.2 | 9.7 | 0.00 | 0.00 | 0.00 | 33 | 1022.1 |
| 20260906192401 | 28 | 86 | 3.2 | 12.9 | 0.00 | 0.00 | 0.00 | 33 | 1022.1 |
| 20260906191901 | 29 | 245 | 1.6 | 11.3 | 0.00 | 0.00 | 0.00 | 32 | 1022.2 |
| 20260906191401 | 28 | 323 | 3.2 | 8.0 | 0.00 | 0.00 | 0.00 | 32 | 1022.3 |
| 20260906190902 | 28 | 232 | 4.8 | 9.7 | 0.00 | 0.00 | 0.00 | 34 | 1022.3 |
| 20260906190401 | 28 | 84 | 8.0 | 19.3 | 0.00 | 0.00 | 0.00 | 33 | 1022.4 |
| 20260906185901 | 28 | 352 | 3.2 | 9.7 | 0.00 | 0.00 | 0.00 | 34 | 1022.5 |
| 20260906184901 | 29 | 84 | 1.6 | 4.8 | 0.00 | 0.00 | 0.00 | 36 | 1022.7 |
| 20260906184401 | 28 | 276 | 1.6 | 4.8 | 0.00 | 0.00 | 0.00 | 34 | 1022.9 |
| 20260906182901 | 28 | 105 | 1.6 | 4.8 | 0.00 | 0.00 | 0.00 | 36 | 1023.1 |
| 20260906182401 | 27 | 37 | 3.2 | 9.7 | 0.00 | 0.00 | 0.00 | 35 | 1023.2 |
| 20260906181401 | 28 | 88 | 0.0 | 8.0 | 0.00 | 0.00 | 0.00 | 36 | 1023.4 |
| 20260906180901 | 27 | 251 | 1.6 | 12.9 | 0.00 | 0.00 | 0.00 | 35 | 1023.5 |
| 20260906180402 | 27 | 83 | 0.0 | 3.2 | 0.00 | 0.00 | 0.00 | 36 | 1023.7 |
| 20260906175901 | 27 | 88 | 1.6 | 8.0 | 0.00 | 0.00 | 0.00 | 36 | 1023.8 |
| 20260906175401 | 27 | 79 | 3.2 | 9.7 | 0.00 | 0.00 | 0.00 | 35 | 1023.8 |
| 20260906174402 | 27 | 277 | 0.0 | 4.8 | 0.00 | 0.00 | 0.00 | 36 | 1024.0 |
| 20260906173901 | 27 | 90 | 1.6 | 4.8 | 0.00 | 0.00 | 0.00 | 37 | 1023.9 |
| 20260906173401 | 27 | 254 | 1.6 | 4.8 | 0.00 | 0.00 | 0.00 | 36 | 1024.0 |
| 20260906172902 | 27 | 252 | 1.6 | 8.0 | 0.00 | 0.00 | 0.00 | 36 | 1024.1 |
| 20260906172401 | 27 | 233 | 3.2 | 9.7 | 0.00 | 0.00 | 0.00 | 35 | 1024.1 |
| 20260906171901 | 27 | 231 | 4.8 | 9.7 | 0.00 | 0.00 | 0.00 | 34 | 1024.2 |
| 20260906171401 | 27 | 268 | 1.6 | 8.0 | 0.00 | 0.00 | 0.00 | 35 | 1024.1 |
| 20260906170901 | 27 | 233 | 3.2 | 4.8 | 0.00 | 0.00 | 0.00 | 35 | 1024.1 |
| 20260906170401 | 27 | 82 | 0.0 | 4.8 | 0.00 | 0.00 | 0.00 | 35 | 1024.2 |
| 20260906165402 | 27 | 72 | 0.0 | 3.2 | 0.00 | 0.00 | 0.00 | 35 | 1024.2 |
| 20260906164902 | 26 | 249 | 1.6 | 3.2 | 0.00 | 0.00 | 0.00 | 35 | 1024.2 |
| 20260906164402 | 26 | 65 | 0.0 | 4.8 | 0.00 | 0.00 | 0.00 | 36 | 1024.2 |
| 20260906163901 | 26 | 103 | 3.2 | 11.3 | 0.00 | 0.00 | 0.00 | 37 | 1024.2 |
| 20260906163402 | 25 | 255 | 1.6 | 9.7 | 0.00 | 0.00 | 0.00 | 37 | 1024.1 |
| 20260906162901 | 25 | 222 | 4.8 | 9.7 | 0.00 | 0.00 | 0.00 | 38 | 1024.2 |
| 20260906162402 | 25 | 212 | 4.8 | 12.9 | 0.00 | 0.00 | 0.00 | 37 | 1024.2 |
| 20260906161401 | 26 | 225 | 1.6 | 4.8 | 0.00 | 0.00 | 0.00 | 37 | 1024.2 |
| 20260906160902 | 26 | 237 | 0.0 | 3.2 | 0.00 | 0.00 | 0.00 | 35 | 1024.1 |
| 20260906160401 | 26 | 303 | 0.0 | 1.6 | 0.00 | 0.00 | 0.00 | 35 | 1024.2 |
| 20260906155901 | 25 | 209 | 0.0 | 1.6 | 0.00 | 0.00 | 0.00 | 36 | 1024.2 |
| 20260906154902 | 25 | 228 | 0.0 | 0.0 | 0.00 | 0.00 | 0.00 | 36 | 1024.1 |
| 20260906154401 | 25 | 247 | 0.0 | 4.8 | 0.00 | 0.00 | 0.00 | 36 | 1024.1 |
| 20260906153903 | 26 | 241 | 1.6 | 8.0 | 0.00 | 0.00 | 0.00 | 35 | 1024.1 |
| 20260906153401 | 25 | 319 | 0.0 | 0.0 | 0.00 | 0.00 | 0.00 | 37 | 1024.0 |
| 20260906152901 | 25 | 79 | 0.0 | 0.0 | 0.00 | 0.00 | 0.00 | 39 | 1024.0 |
| 20260906152401 | 24 | 79 | 0.0 | 3.2 | 0.00 | 0.00 | 0.00 | 38 | 1024.0 |
| 20260906151401 | 24 | 78 | 1.6 | 8.0 | 0.00 | 0.00 | 0.00 | 39 | 1024.0 |
| 20260906150901 | 24 | 85 | 1.6 | 9.7 | 0.00 | 0.00 | 0.00 | 41 | 1024.0 |
| 20260906150402 | 23 | 68 | 1.6 | 3.2 | 0.00 | 0.00 | 0.00 | 41 | 1024.0 |
| 20260906145901 | 23 | 86 | 1.6 | 4.8 | 0.00 | 0.00 | 0.00 | 41 | 1023.9 |
| 20260906145402 | 23 | 58 | 1.6 | 4.8 | 0.00 | 0.00 | 0.00 | 42 | 1024.0 |
| 20260906144901 | 22 | 4 | 0.0 | 4.8 | 0.00 | 0.00 | 0.00 | 43 | 1024.0 |
| 20260906144402 | 22 | 70 | 1.6 | 4.8 | 0.00 | 0.00 | 0.00 | 42 | 1024.0 |
| 20260906143402 | 22 | 5 | 1.6 | 4.8 | 0.00 | 0.00 | 0.00 | 44 | 1023.8 |
| 20260906141901 | 21 | 3 | 1.6 | 4.8 | 0.00 | 0.00 | 0.00 | 47 | 1023.7 |
| 20260906141402 | 21 | 23 | 1.6 | 4.8 | 0.00 | 0.00 | 0.00 | 47 | 1023.8 |
| 20260906140901 | 20 | 27 | 0.0 | 4.8 | 0.00 | 0.00 | 0.00 | 48 | 1023.8 |
| 20260906140401 | 20 | 355 | 0.0 | 4.8 | 0.00 | 0.00 | 0.00 | 49 | 1023.7 |
| 20260906135902 | 20 | 8 | 0.0 | 4.8 | 0.00 | 0.00 | 0.00 | 50 | 1023.6 |
| 20260906135401 | 19 | 342 | 1.6 | 4.8 | 0.00 | 0.00 | 0.00 | 50 | 1023.5 |
| 20260906134902 | 18 | 94 | 0.0 | 0.0 | 0.00 | 0.00 | 0.00 | 52 | 1023.5 |
| 20260906132902 | 17 | 5 | 0.0 | 0.0 | 0.00 | 0.00 | 0.00 | 57 | 1023.5 |
| 20260906132402 | 16 | 28 | 0.0 | 1.6 | 0.00 | 0.00 | 0.00 | 58 | 1023.4 |
| 20260906131902 | 16 | 350 | 0.0 | 3.2 | 0.00 | 0.00 | 0.00 | 58 | 1023.4 |
| 20260906131401 | 16 | 1 | 0.0 | 1.6 | 0.00 | 0.00 | 0.00 | 58 | 1023.3 |
| 20260906130901 | 16 | 2 | 0.0 | 1.6 | 0.00 | 0.00 | 0.00 | 58 | 1023.3 |
| 20260906130402 | 16 | 17 | 0.0 | 0.0 | 0.00 | 0.00 | 0.00 | 57 | 1023.3 |
| 20260906125902 | 16 | 46 | 0.0 | 0.0 | 0.00 | 0.00 | 0.00 | 58 | 1023.3 |
| 20260906125402 | 17 | 92 | 0.0 | 0.0 | 0.00 | 0.00 | 0.00 | 56 | 1023.4 |
| 20260906124902 | 17 | 23 | 0.0 | 0.0 | 0.00 | 0.00 | 0.00 | 55 | 1023.4 |
| 20260906124401 | 17 | 13 | 0.0 | 0.0 | 0.00 | 0.00 | 0.00 | 54 | 1023.3 |
| 20260906123902 | 17 | 47 | 0.0 | 0.0 | 0.00 | 0.00 | 0.00 | 53 | 1023.3 |
| 20260906123402 | 17 | 53 | 1.6 | 4.8 | 0.00 | 0.00 | 0.00 | 53 | 1023.2 |
| 20260906122902 | 17 | 74 | 0.0 | 4.8 | 0.00 | 0.00 | 0.00 | 53 | 1023.1 |
| 20260906122402 | 17 | 84 | 1.6 | 3.2 | 0.00 | 0.00 | 0.00 | 52 | 1023.1 |
| 20260906121902 | 17 | 72 | 0.0 | 4.8 | 0.00 | 0.00 | 0.00 | 52 | 1023.1 |
| 20260906121402 | 17 | 16 | 1.6 | 4.8 | 0.00 | 0.00 | 0.00 | 53 | 1023.1 |
| 20260906120902 | 17 | 75 | 0.0 | 3.2 | 0.00 | 0.00 | 0.00 | 54 | 1023.2 |
| 20260906120402 | 17 | 10 | 0.0 | 1.6 | 0.00 | 0.00 | 0.00 | 53 | 1023.2 |
| 20260906115902 | 17 | 94 | 0.0 | 0.0 | 0.00 | 0.00 | 0.00 | 53 | 1023.1 |
| 20260906115402 | 17 | 108 | 0.0 | 0.0 | 0.00 | 0.00 | 0.00 | 53 | 1023.1 |
| 20260906114902 | 17 | 355 | 0.0 | 3.2 | 0.00 | 0.00 | 0.00 | 53 | 1023.1 |
| 20260906114402 | 17 | 333 | 0.0 | 1.6 | 0.00 | 0.00 | 0.00 | 53 | 1022.9 |
| 20260906113902 | 17 | 328 | 0.0 | 3.2 | 0.00 | 0.00 | 0.00 | 53 | 1023.0 |
| 20260906113402 | 17 | 5 | 0.0 | 3.2 | 0.00 | 0.00 | 0.00 | 53 | 1023.0 |
| 20260906112902 | 17 | 16 | 0.0 | 3.2 | 0.00 | 0.00 | 0.00 | 54 | 1022.9 |
| 20260906112402 | 17 | 50 | 0.0 | 0.0 | 0.00 | 0.00 | 0.00 | 55 | 1022.8 |
| 20260906111902 | 16 | 99 | 0.0 | 0.0 | 0.00 | 0.00 | 0.00 | 55 | 1022.7 |
| 20260906110902 | 16 | 10 | 0.0 | 0.0 | 0.00 | 0.00 | 0.00 | 56 | 1022.7 |
| 20260906110402 | 16 | 10 | 0.0 | 0.0 | 0.00 | 0.00 | 0.00 | 56 | 1022.6 |
| 20260906105902 | 17 | 10 | 0.0 | 0.0 | 0.00 | 0.00 | 0.00 | 56 | 1022.6 |
| 20260906105402 | 17 | 10 | 0.0 | 0.0 | 0.00 | 0.00 | 0.00 | 54 | 1022.6 |
| 20260906104902 | 17 | 88 | 0.0 | 3.2 | 0.00 | 0.00 | 0.00 | 55 | 1022.5 |
| 20260906104402 | 17 | 76 | 0.0 | 0.0 | 0.00 | 0.00 | 0.00 | 55 | 1022.7 |
| 20260906103903 | 17 | 55 | 0.0 | 0.0 | 0.00 | 0.00 | 0.00 | 56 | 1022.6 |
| 20260906102903 | 17 | 40 | 0.0 | 1.6 | 0.00 | 0.00 | 0.00 | 56 | 1022.7 |
| 20260906102402 | 17 | 38 | 0.0 | 0.0 | 0.00 | 0.00 | 0.00 | 57 | 1022.7 |
| 20260906101902 | 17 | 57 | 0.0 | 0.0 | 0.00 | 0.00 | 0.00 | 58 | 1022.9 |
| 20260906101403 | 17 | 86 | 0.0 | 0.0 | 0.00 | 0.00 | 0.00 | 57 | 1022.9 |
| 20260906100902 | 17 | 86 | 0.0 | 0.0 | 0.00 | 0.00 | 0.00 | 57 | 1022.9 |
| 20260906094403 | 17 | 94 | 0.0 | 0.0 | 0.00 | 0.00 | 0.00 | 57 | 1023.1 |
| 20260906093903 | 17 | 82 | 0.0 | 0.0 | 0.00 | 0.00 | 0.00 | 58 | 1023.0 |
| 20260906093402 | 17 | 87 | 0.0 | 0.0 | 0.00 | 0.00 | 0.00 | 59 | 1023.0 |
| 20260906092903 | 17 | 78 | 0.0 | 0.0 | 0.00 | 0.00 | 0.00 | 59 | 1023.1 |
| 20260906092402 | 18 | 61 | 0.0 | 0.0 | 0.00 | 0.00 | 0.00 | 57 | 1023.0 |
| 20260906091402 | 18 | 85 | 0.0 | 3.2 | 0.00 | 0.00 | 0.00 | 57 | 1022.9 |
| 20260906090903 | 18 | 22 | 0.0 | 3.2 | 0.00 | 0.00 | 0.00 | 58 | 1022.8 |
| 20260906090403 | 18 | 13 | 0.0 | 3.2 | 0.00 | 0.00 | 0.00 | 59 | 1022.9 |
| 20260906085902 | 18 | 14 | 0.0 | 3.2 | 0.00 | 0.00 | 0.00 | 60 | 1022.9 |
| 20260906085403 | 18 | 23 | 0.0 | 1.6 | 0.00 | 0.00 | 0.00 | 60 | 1022.9 |
| 20260906084902 | 18 | 86 | 0.0 | 0.0 | 0.00 | 0.00 | 0.00 | 60 | 1022.9 |
| 20260906084402 | 18 | 57 | 0.0 | 1.6 | 0.00 | 0.00 | 0.00 | 60 | 1022.9 |
| 20260906083402 | 18 | 4 | 0.0 | 3.2 | 0.00 | 0.00 | 0.00 | 60 | 1023.0 |
| 20260906082902 | 18 | 56 | 0.0 | 1.6 | 0.00 | 0.00 | 0.00 | 61 | 1023.0 |
| 20260906082402 | 18 | 10 | 0.0 | 3.2 | 0.00 | 0.00 | 0.00 | 61 | 1023.0 |
| 20260906081903 | 18 | 330 | 0.0 | 0.0 | 0.00 | 0.00 | 0.00 | 62 | 1023.0 |
| 20260906081403 | 18 | 36 | 0.0 | 0.0 | 0.00 | 0.00 | 0.00 | 63 | 1022.9 |
| 20260906080902 | 18 | 52 | 0.0 | 0.0 | 0.00 | 0.00 | 0.00 | 64 | 1022.9 |
| 20260906080403 | 17 | 317 | 0.0 | 4.8 | 0.00 | 0.00 | 0.00 | 67 | 1023.0 |
| 20260906075903 | 17 | 37 | 0.0 | 3.2 | 0.00 | 0.00 | 0.00 | 70 | 1023.1 |
| 20260906075403 | 17 | 2 | 0.0 | 3.2 | 0.00 | 0.00 | 0.00 | 70 | 1023.2 |
| 20260906074903 | 17 | 91 | 0.0 | 1.6 | 0.00 | 0.00 | 0.00 | 71 | 1023.3 |
| 20260906074403 | 17 | 63 | 0.0 | 3.2 | 0.00 | 0.00 | 0.00 | 71 | 1023.3 |
| 20260906073903 | 17 | 44 | 0.0 | 0.0 | 0.00 | 0.00 | 0.00 | 72 | 1023.2 |
| 20260906073403 | 17 | 72 | 0.0 | 0.0 | 0.00 | 0.00 | 0.00 | 72 | 1023.2 |
| 20260906072903 | 17 | 68 | 0.0 | 0.0 | 0.00 | 0.00 | 0.00 | 72 | 1023.2 |
| 20260906072402 | 17 | 60 | 0.0 | 1.6 | 0.00 | 0.00 | 0.00 | 71 | 1023.3 |
| 20260906071902 | 17 | 80 | 0.0 | 0.0 | 0.00 | 0.00 | 0.00 | 71 | 1023.3 |
| 20260906071402 | 17 | 80 | 0.0 | 0.0 | 0.00 | 0.00 | 0.00 | 70 | 1023.4 |
| 20260906070903 | 17 | 80 | 0.0 | 0.0 | 0.00 | 0.00 | 0.00 | 70 | 1023.4 |
| 20260906070403 | 17 | 80 | 0.0 | 0.0 | 0.00 | 0.00 | 0.00 | 70 | 1023.4 |
| 20260906065902 | 17 | 316 | 0.0 | 0.0 | 0.00 | 0.00 | 0.00 | 70 | 1023.6 |
| 20260906065402 | 17 | 10 | 0.0 | 1.6 | 0.00 | 0.00 | 0.00 | 70 | 1023.7 |
| 20260906064903 | 18 | 89 | 0.0 | 0.0 | 0.00 | 0.00 | 0.00 | 68 | 1023.7 |
| 20260906064403 | 18 | 89 | 0.0 | 0.0 | 0.00 | 0.00 | 0.00 | 69 | 1023.6 |
| 20260906063903 | 18 | 89 | 0.0 | 0.0 | 0.00 | 0.00 | 0.00 | 68 | 1023.6 |
| 20260906062903 | 18 | 89 | 0.0 | 3.2 | 0.00 | 0.00 | 0.00 | 67 | 1023.4 |
| 20260906062403 | 18 | 78 | 0.0 | 3.2 | 0.00 | 0.00 | 0.00 | 68 | 1023.3 |
| 20260906061403 | 18 | 97 | 0.0 | 0.0 | 0.00 | 0.00 | 0.00 | 68 | 1023.4 |
| 20260906060903 | 18 | 96 | 0.0 | 0.0 | 0.00 | 0.00 | 0.00 | 68 | 1023.3 |
| 20260906060403 | 18 | 100 | 0.0 | 0.0 | 0.00 | 0.00 | 0.00 | 68 | 1023.3 |
| 20260906055903 | 18 | 101 | 0.0 | 0.0 | 0.00 | 0.00 | 0.00 | 68 | 1023.2 |
| 20260906055402 | 18 | 111 | 0.0 | 0.0 | 0.00 | 0.00 | 0.00 | 68 | 1023.1 |
| 20260906054903 | 18 | 91 | 0.0 | 0.0 | 0.00 | 0.00 | 0.00 | 69 | 1023.2 |
| 20260906054403 | 18 | 102 | 0.0 | 0.0 | 0.00 | 0.00 | 0.00 | 70 | 1023.0 |
| 20260906053902 | 18 | 108 | 0.0 | 0.0 | 0.00 | 0.00 | 0.00 | 70 | 1023.0 |
| 20260906053403 | 18 | 109 | 0.0 | 1.6 | 0.00 | 0.00 | 0.00 | 71 | 1023.1 |
| 20260906052903 | 18 | 109 | 0.0 | 0.0 | 0.00 | 0.00 | 0.00 | 71 | 1023.1 |
| 20260906052403 | 18 | 109 | 0.0 | 0.0 | 0.00 | 0.00 | 0.00 | 72 | 1023.1 |
| 20260906051403 | 18 | 109 | 0.0 | 1.6 | 0.00 | 0.00 | 0.00 | 71 | 1023.2 |
| 20260906050903 | 18 | 256 | 0.0 | 0.0 | 0.00 | 0.00 | 0.00 | 71 | 1023.2 |
| 20260906050403 | 18 | 256 | 0.0 | 0.0 | 0.00 | 0.00 | 0.00 | 70 | 1023.3 |
| 20260906045903 | 18 | 256 | 0.0 | 0.0 | 0.00 | 0.00 | 0.00 | 70 | 1023.2 |
| 20260906045402 | 18 | 256 | 0.0 | 0.0 | 0.00 | 0.00 | 0.00 | 70 | 1023.3 |
| 20260906044903 | 18 | 256 | 0.0 | 0.0 | 0.00 | 0.00 | 0.00 | 70 | 1023.4 |
| 20260906043903 | 18 | 256 | 0.0 | 0.0 | 0.00 | 0.00 | 0.00 | 69 | 1023.5 |
| 20260906043403 | 18 | 256 | 0.0 | 0.0 | 0.00 | 0.00 | 0.00 | 68 | 1023.5 |
| 20260906042903 | 19 | 256 | 0.0 | 0.0 | 0.00 | 0.00 | 0.00 | 68 | 1023.6 |
| 20260906042403 | 19 | 256 | 0.0 | 0.0 | 0.00 | 0.00 | 0.00 | 67 | 1023.5 |
| 20260906041903 | 19 | 256 | 0.0 | 0.0 | 0.00 | 0.00 | 0.00 | 67 | 1023.6 |
| 20260906040904 | 19 | 256 | 0.0 | 0.0 | 0.00 | 0.00 | 0.00 | 67 | 1023.7 |
| 20260906040403 | 20 | 256 | 0.0 | 0.0 | 0.00 | 0.00 | 0.00 | 66 | 1023.6 |
| 20260906035903 | 20 | 256 | 0.0 | 0.0 | 0.00 | 0.00 | 0.00 | 66 | 1023.7 |
| 20260906034903 | 20 | 256 | 0.0 | 1.6 | 0.00 | 0.00 | 0.00 | 64 | 1023.7 |
| 20260906034402 | 20 | 256 | 0.0 | 0.0 | 0.00 | 0.00 | 0.00 | 63 | 1023.7 |
| 20260906033903 | 20 | 256 | 0.0 | 1.6 | 0.00 | 0.00 | 0.00 | 63 | 1023.6 |
| 20260906033403 | 20 | 312 | 0.0 | 0.0 | 0.00 | 0.00 | 0.00 | 63 | 1023.5 |
| 20260906032403 | 21 | 88 | 0.0 | 3.2 | 0.00 | 0.00 | 0.00 | 62 | 1023.4 |
| 20260906031903 | 21 | 93 | 0.0 | 4.8 | 0.00 | 0.00 | 0.00 | 62 | 1023.3 |
| 20260906030903 | 21 | 101 | 0.0 | 8.0 | 0.00 | 0.00 | 0.00 | 61 | 1023.3 |
| 20260906030403 | 21 | 93 | 1.6 | 4.8 | 0.00 | 0.00 | 0.00 | 61 | 1023.1 |
| 20260906025403 | 21 | 95 | 1.6 | 3.2 | 0.00 | 0.00 | 0.00 | 61 | 1022.9 |
| 20260906024903 | 21 | 105 | 4.8 | 8.0 | 0.00 | 0.00 | 0.00 | 60 | 1022.9 |
| 20260906023903 | 22 | 92 | 0.0 | 4.8 | 0.00 | 0.00 | 0.00 | 59 | 1022.8 |
| 20260906023403 | 22 | 102 | 4.8 | 8.0 | 0.00 | 0.00 | 0.00 | 59 | 1022.7 |
| 20260906022904 | 22 | 83 | 3.2 | 11.3 | 0.00 | 0.00 | 0.00 | 58 | 1022.7 |
| 20260906022403 | 22 | 96 | 3.2 | 12.9 | 0.00 | 0.00 | 0.00 | 57 | 1022.7 |
| 20260906021903 | 22 | 90 | 3.2 | 9.7 | 0.00 | 0.00 | 0.00 | 55 | 1022.7 |
| 20260906021403 | 23 | 99 | 4.8 | 11.3 | 0.00 | 0.00 | 0.00 | 52 | 1022.5 |
| 20260906020903 | 23 | 96 | 4.8 | 16.1 | 0.00 | 0.00 | 0.00 | 45 | 1022.4 |
| 20260906020403 | 23 | 86 | 3.2 | 16.1 | 0.00 | 0.00 | 0.00 | 35 | 1022.1 |
| 20260906015903 | 23 | 84 | 0.0 | 1.6 | 0.00 | 0.00 | 0.00 | 35 | 1021.9 |
| 20260906014903 | 23 | 99 | 0.0 | 3.2 | 0.00 | 0.00 | 0.00 | 35 | 1021.8 |
| 20260906014403 | 23 | 87 | 1.6 | 4.8 | 0.00 | 0.00 | 0.00 | 34 | 1021.7 |
| 20260906013903 | 23 | 86 | 1.6 | 3.2 | 0.00 | 0.00 | 0.00 | 34 | 1021.7 |
| 20260906013403 | 23 | 90 | 0.0 | 4.8 | 0.00 | 0.00 | 0.00 | 34 | 1021.7 |
| 20260906012903 | 23 | 92 | 0.0 | 3.2 | 0.00 | 0.00 | 0.00 | 34 | 1021.7 |
| 20260906012403 | 24 | 88 | 0.0 | 1.6 | 0.00 | 0.00 | 0.00 | 33 | 1021.7 |
| 20260906011903 | 25 | 86 | 0.0 | 4.8 | 0.00 | 0.00 | 0.00 | 32 | 1021.8 |
| 20260906011403 | 25 | 94 | 0.0 | 1.6 | 0.00 | 0.00 | 0.00 | 32 | 1021.9 |
| 20260906010904 | 25 | 3 | 0.0 | 1.6 | 0.00 | 0.00 | 0.00 | 31 | 1021.8 |
| 20260906010404 | 26 | 2 | 0.0 | 3.2 | 0.00 | 0.00 | 0.00 | 31 | 1021.9 |
| 20260906005903 | 26 | 354 | 1.6 | 4.8 | 0.00 | 0.00 | 0.00 | 30 | 1022.0 |
| 20260906005403 | 26 | 51 | 1.6 | 4.8 | 0.00 | 0.00 | 0.00 | 32 | 1022.1 |
| 20260906004903 | 26 | 16 | 0.0 | 4.8 | 0.00 | 0.00 | 0.00 | 31 | 1022.1 |
| 20260906004403 | 26 | 58 | 0.0 | 3.2 | 0.00 | 0.00 | 0.00 | 31 | 1022.2 |
| 20260906003903 | 26 | 9 | 1.6 | 4.8 | 0.00 | 0.00 | 0.00 | 31 | 1022.2 |
| 20260906002903 | 26 | 314 | 3.2 | 4.8 | 0.00 | 0.00 | 0.00 | 32 | 1022.2 |
| 20260906002403 | 26 | 303 | 3.2 | 4.8 | 0.00 | 0.00 | 0.00 | 31 | 1022.1 |
| 20260906001904 | 26 | 300 | 1.6 | 8.0 | 0.00 | 0.00 | 0.00 | 32 | 1022.1 |
| 20260906001403 | 26 | 282 | 3.2 | 8.0 | 0.00 | 0.00 | 0.00 | 30 | 1022.1 |
| 20260906000903 | 26 | 49 | 0.0 | 1.6 | 0.00 | 0.00 | 0.00 | 30 | 1022.0 |
| 20260906000403 | 27 | 83 | 0.0 | 1.6 | 0.00 | 0.00 | 0.00 | 29 | 1022.0 |
| 20260905235404 | 27 | 327 | 1.6 | 3.2 | 0.00 | 0.00 | 0.00 | 28 | 1022.0 |
| 20260905234903 | 27 | 82 | 0.0 | 0.0 | 0.00 | 0.00 | 0.00 | 30 | 1021.9 |
| 20260905234403 | 26 | 82 | 0.0 | 0.0 | 0.00 | 0.00 | 0.00 | 28 | 1021.9 |
| 20260905233903 | 27 | 82 | 0.0 | 3.2 | 0.00 | 0.00 | 0.00 | 29 | 1021.9 |
| 20260905233403 | 27 | 90 | 1.6 | 4.8 | 0.00 | 0.00 | 0.00 | 27 | 1021.9 |
| 20260905232404 | 27 | 87 | 0.0 | 4.8 | 0.00 | 0.00 | 0.00 | 28 | 1021.8 |
| 20260905231904 | 27 | 108 | 1.6 | 3.2 | 0.00 | 0.00 | 0.00 | 28 | 1021.8 |
| 20260905231403 | 27 | 79 | 1.6 | 4.8 | 0.00 | 0.00 | 0.00 | 28 | 1021.7 |
| 20260905230904 | 27 | 76 | 0.0 | 3.2 | 0.00 | 0.00 | 0.00 | 28 | 1021.8 |
| 20260905230403 | 27 | 314 | 0.0 | 0.0 | 0.00 | 0.00 | 0.00 | 27 | 1021.8 |
| 20260905225904 | 27 | 314 | 0.0 | 3.2 | 0.00 | 0.00 | 0.00 | 28 | 1021.8 |
| 20260905225404 | 27 | 328 | 1.6 | 3.2 | 0.00 | 0.00 | 0.00 | 28 | 1021.9 |
| 20260905224903 | 27 | 244 | 0.0 | 3.2 | 0.00 | 0.00 | 0.00 | 27 | 1021.9 |
| 20260905224404 | 27 | 56 | 0.0 | 3.2 | 0.00 | 0.00 | 0.00 | 27 | 1021.9 |
| 20260905223404 | 26 | 306 | 0.0 | 4.8 | 0.00 | 0.00 | 0.00 | 31 | 1022.0 |
| 20260905222903 | 26 | 326 | 1.6 | 4.8 | 0.00 | 0.00 | 0.00 | 30 | 1022.1 |
| 20260905222404 | 26 | 319 | 1.6 | 4.8 | 0.00 | 0.00 | 0.00 | 30 | 1022.2 |
| 20260905221904 | 26 | 303 | 3.2 | 4.8 | 0.00 | 0.00 | 0.00 | 30 | 1022.3 |
| 20260905221404 | 26 | 224 | 3.2 | 8.0 | 0.00 | 0.00 | 0.00 | 29 | 1022.2 |
| 20260905220904 | 27 | 84 | 0.0 | 3.2 | 0.00 | 0.00 | 0.00 | 29 | 1022.2 |
| 20260905220404 | 27 | 315 | 0.0 | 3.2 | 0.00 | 0.00 | 0.00 | 29 | 1022.2 |
| 20260905215403 | 27 | 251 | 0.0 | 3.2 | 0.00 | 0.00 | 0.00 | 30 | 1022.2 |